地図

経路データ

SID SEASON NUMBER BASIN SUBBASIN NAME ISO_TIME NATURE LAT LON WMO_WIND WMO_PRES WMO_AGENCY TRACK_TYPE DIST2LAND LANDFALL IFLAG USA_AGENCY USA_ATCF_ID USA_LAT USA_LON USA_RECORD USA_STATUS USA_WIND USA_PRES USA_SSHS USA_R34_NE USA_R34_SE USA_R34_SW USA_R34_NW USA_R50_NE USA_R50_SE USA_R50_SW USA_R50_NW USA_R64_NE USA_R64_SE USA_R64_SW USA_R64_NW USA_POCI USA_ROCI USA_RMW USA_EYE TOKYO_LAT TOKYO_LON TOKYO_GRADE TOKYO_WIND TOKYO_PRES TOKYO_R50_DIR TOKYO_R50_LONG TOKYO_R50_SHORT TOKYO_R30_DIR TOKYO_R30_LONG TOKYO_R30_SHORT TOKYO_LAND CMA_LAT CMA_LON CMA_CAT CMA_WIND CMA_PRES HKO_LAT HKO_LON HKO_CAT HKO_WIND HKO_PRES NEWDELHI_LAT NEWDELHI_LON NEWDELHI_GRADE NEWDELHI_WIND NEWDELHI_PRES NEWDELHI_CI NEWDELHI_DP NEWDELHI_POCI REUNION_LAT REUNION_LON REUNION_TYPE REUNION_WIND REUNION_PRES REUNION_TNUM REUNION_CI REUNION_RMW REUNION_R34_NE REUNION_R34_SE REUNION_R34_SW REUNION_R34_NW REUNION_R50_NE REUNION_R50_SE REUNION_R50_SW REUNION_R50_NW REUNION_R64_NE REUNION_R64_SE REUNION_R64_SW REUNION_R64_NW BOM_LAT BOM_LON BOM_TYPE BOM_WIND BOM_PRES BOM_TNUM BOM_CI BOM_RMW BOM_R34_NE BOM_R34_SE BOM_R34_SW BOM_R34_NW BOM_R50_NE BOM_R50_SE BOM_R50_SW BOM_R50_NW BOM_R64_NE BOM_R64_SE BOM_R64_SW BOM_R64_NW BOM_ROCI BOM_POCI BOM_EYE BOM_POS_METHOD BOM_PRES_METHOD NADI_LAT NADI_LON NADI_CAT NADI_WIND NADI_PRES WELLINGTON_LAT WELLINGTON_LON WELLINGTON_WIND WELLINGTON_PRES DS824_LAT DS824_LON DS824_STAGE DS824_WIND DS824_PRES TD9636_LAT TD9636_LON TD9636_STAGE TD9636_WIND TD9636_PRES TD9635_LAT TD9635_LON TD9635_WIND TD9635_PRES TD9635_ROCI NEUMANN_LAT NEUMANN_LON NEUMANN_CLASS NEUMANN_WIND NEUMANN_PRES MLC_LAT MLC_LON MLC_CLASS MLC_WIND MLC_PRES USA_GUST BOM_GUST BOM_GUST_PER REUNION_GUST REUNION_GUST_PER USA_SEAHGT USA_SEARAD_NE USA_SEARAD_SE USA_SEARAD_SW USA_SEARAD_NW STORM_SPEED STORM_DIR
1963157N20088 1963 49 NI BB NOT_NAMED 1963-06-05 18:00:00 TS 19.6000 88.0000 main 156 151 O________O____ jtwc_io IO051963 19.6000 88.0000 -1 19.6000 88.0000 TC 2 348
1963157N20088 1963 49 NI BB NOT_NAMED 1963-06-05 21:00:00 TS 19.6775 87.9800 main 151 144 P________P____ IO051963 19.6775 87.9800 -1 19.6775 87.9800 TC 2 8
1963157N20088 1963 49 NI BB NOT_NAMED 1963-06-06 00:00:00 TS 19.8000 88.0000 main 144 137 O________O____ jtwc_io IO051963 19.8000 88.0000 -1 19.8000 88.0000 TC 25 3 16
1963157N20088 1963 49 NI BB NOT_NAMED 1963-06-06 03:00:00 TS 20.0045 88.0867 main 138 127 P________PO___ IO051963 20.0050 88.0850 -1 20.0050 88.0850 TC 25 20.0000 88.1000 1 6 20
1963157N20088 1963 49 NI BB NOT_NAMED 1963-06-06 06:00:00 TS 20.3213 88.1980 main 132 100 O________OP___ jtwc_io IO051963 20.3000 88.2000 -1 20.3000 88.2000 TC 25 20.4063 88.1901 1 7 16
1963157N20088 1963 49 NI BB NOT_NAMED 1963-06-06 09:00:00 TS 20.7164 88.2957 main 100 55 P________PP___ IO051963 20.6850 88.3000 -1 20.6850 88.3000 TC 25 20.8000 88.2844 1 8 13
1963157N20088 1963 49 NI BB NOT_NAMED 1963-06-06 12:00:00 TS 21.1229 88.3955 main 55 11 O________OP___ jtwc_io IO051963 21.1000 88.4000 -1 21.1000 88.4000 TC 25 21.1688 88.3864 1 8 14
1963157N20088 1963 49 NI BB NOT_NAMED 1963-06-06 15:00:00 TS 21.4766 88.4951 main 11 0 P________PO___ IO051963 21.4650 88.4926 -1 21.4650 88.4926 TC 25 21.5000 88.5000 1 7 16
1963157N20088 1963 49 NI BB NOT_NAMED 1963-06-06 18:00:00 TS 21.7963 88.6094 main 0 0 O________OP___ jtwc_io IO051963 21.8000 88.6000 -1 21.8000 88.6000 TC 25 21.7890 88.6281 1 7 21
1963157N20088 1963 49 NI BB NOT_NAMED 1963-06-06 21:00:00 TS 22.0875 88.7470 main 0 0 P________PP___ IO051963 22.1000 88.7351 -1 22.1000 88.7351 TC 25 22.0624 88.7709 1 7 25
1963157N20088 1963 49 NI BB NOT_NAMED 1963-06-07 00:00:00 TS 22.3849 88.9094 main 0 0 O________OP___ jtwc_io IO051963 22.4000 88.9000 -1 22.4000 88.9000 TC 25 22.3546 88.9282 1 7 27
1963157N20088 1963 49 NI BB NOT_NAMED 1963-06-07 03:00:00 TS 22.7083 89.0951 main 0 0 P________PO___ IO051963 22.7125 89.0927 -1 22.7125 89.0927 TC 25 22.7000 89.1000 1 8 26
1963157N20088 1963 49 NI BB NOT_NAMED 1963-06-07 06:00:00 TS 23.1372 89.3029 main 0 0 O________OP___ jtwc_io IO051963 23.1000 89.3000 -1 23.1000 89.3000 TC 25 23.2117 89.3087 1 11 22
1963157N20088 1963 49 NI BB NOT_NAMED 1963-06-07 09:00:00 TS 23.6843 89.5143 main 0 0 P________PP___ IO051963 23.6425 89.5073 -1 23.6425 89.5073 TC 25 23.7678 89.5282 1 12 19
1963157N20088 1963 49 NI BB NOT_NAMED 1963-06-07 12:00:00 TS 24.2300 89.7112 main 0 0 O________OP___ jtwc_io IO051963 24.2000 89.7000 -1 24.2000 89.7000 TC 25 24.2899 89.7337 1 11 19
1963157N20088 1963 49 NI BB NOT_NAMED 1963-06-07 15:00:00 TS 24.6833 89.8817 main 0 0 P________PO___ IO051963 24.6750 89.8725 -1 24.6750 89.8725 TC 25 24.7000 89.9000 1 8 20
1963157N20088 1963 49 NI BB NOT_NAMED 1963-06-07 18:00:00 TS 24.9764 90.0032 main 0 0 O________OP___ jtwc_io IO051963 25.0000 90.0000 -1 25.0000 90.0000 TC 25 24.9410 90.0079 1 4 23
1963157N20088 1963 49 NI BB NOT_NAMED 1963-06-07 21:00:00 TS 25.0813 90.0670 main 0 0 P________PP___ IO051963 25.1125 90.0676 -1 25.1125 90.0676 TC 25 25.0397 90.0663 1 1 40
1963157N20088 1963 49 NI BB NOT_NAMED 1963-06-08 00:00:00 TS 25.0718 90.0957 main 0 0 O________OP___ jtwc_io IO051963 25.1000 90.1000 -1 25.1000 90.1000 TC 25 25.0436 90.0914 1 1 157
1963157N20088 1963 49 NI BB NOT_NAMED 1963-06-08 03:00:00 NR 25.0000 90.1000 main 0 __________O___ IO051963 -1 TC 25.0000 90.1000 1 1 0

IBTrACS Databaseについて

本データベースは、米国NOAAが公開する1842年以降の世界の熱帯低気圧のベストトラックデータアーカイブInternational Best Track Archive for Climate Stewardship (IBTrACS)を、ウェブで閲覧しやすい形式に変換したものです。

最終更新日:2021-10-08